createdAt,value
2023-04-01T00:01:39.773Z,3.00
2023-04-01T00:05:12.582Z,3.10
2023-04-01T00:08:45.521Z,2.85
2023-04-01T00:12:17.646Z,3.05
2023-04-01T00:15:50.003Z,2.67
2023-04-01T00:19:22.642Z,3.75
2023-04-01T00:22:54.918Z,2.65
2023-04-01T00:26:27.689Z,2.20
2023-04-01T00:30:00.086Z,2.45
2023-04-01T00:33:32.000Z,2.30
2023-04-01T00:37:04.987Z,1.90
2023-04-01T00:40:40.705Z,2.35
2023-04-01T00:44:22.400Z,2.88
2023-04-01T00:47:55.917Z,2.85
2023-04-01T00:51:30.530Z,2.47
2023-04-01T00:55:05.728Z,3.83
2023-04-01T00:58:42.221Z,2.83
2023-04-01T01:02:15.610Z,3.23
2023-04-01T01:06:03.950Z,3.78
2023-04-01T01:09:42.163Z,3.50
2023-04-01T01:13:25.884Z,3.15
2023-04-01T01:17:08.069Z,3.60
2023-04-01T01:20:51.837Z,3.70
2023-04-01T01:24:38.706Z,3.28
2023-04-01T01:28:34.651Z,3.73
2023-04-01T01:32:06.714Z,3.45
2023-04-01T01:35:48.877Z,3.88
2023-04-01T01:39:22.020Z,4.20
2023-04-01T01:42:57.953Z,3.78
2023-04-01T01:46:31.910Z,3.92
2023-04-01T01:50:05.947Z,4.30
2023-04-01T01:53:38.134Z,3.87
2023-04-01T01:57:11.517Z,4.32
2023-04-01T02:00:47.566Z,4.47
2023-04-01T02:04:20.365Z,4.10
2023-04-01T02:08:10.622Z,3.97
2023-04-01T02:11:58.274Z,5.15
2023-04-01T02:15:34.222Z,4.03
2023-04-01T02:19:11.372Z,4.05
2023-04-01T02:22:49.328Z,3.92
2023-04-01T02:26:22.179Z,4.07
2023-04-01T02:29:54.410Z,4.33
2023-04-01T02:33:26.453Z,4.63
2023-04-01T02:36:58.886Z,4.32
2023-04-01T02:40:30.822Z,4.30
2023-04-01T02:44:03.066Z,4.05
2023-04-01T02:47:35.349Z,4.07
2023-04-01T02:51:07.451Z,4.23
2023-04-01T02:54:39.760Z,4.25
2023-04-01T02:58:12.444Z,4.03
2023-04-01T03:01:44.270Z,4.40
2023-04-01T03:05:16.496Z,4.07
2023-04-01T03:08:48.594Z,4.45
2023-04-01T03:12:20.756Z,4.55
2023-04-01T03:15:53.004Z,4.13
2023-04-01T03:19:25.342Z,4.13
2023-04-01T03:22:57.170Z,4.45
2023-04-01T03:26:29.490Z,4.78
2023-04-01T03:30:01.472Z,4.30
2023-04-01T03:33:33.938Z,3.95
2023-04-01T03:37:06.930Z,3.58
2023-04-01T03:40:43.649Z,4.33
2023-04-01T03:44:15.756Z,4.05
2023-04-01T03:47:47.860Z,4.55
2023-04-01T03:51:20.401Z,4.93
2023-04-01T03:54:52.644Z,4.17
2023-04-01T03:58:24.410Z,4.45
2023-04-01T04:01:56.792Z,4.18
2023-04-01T04:05:29.315Z,4.90
2023-04-01T04:09:01.632Z,4.72
2023-04-01T04:12:33.971Z,5.18
2023-04-01T04:16:11.169Z,5.50
2023-04-01T04:19:43.821Z,4.90
2023-04-01T04:23:16.193Z,5.60
2023-04-01T04:26:48.163Z,5.70
2023-04-01T04:30:20.335Z,6.03
2023-04-01T04:33:52.574Z,5.72
2023-04-01T04:37:24.793Z,5.80
2023-04-01T04:40:57.406Z,5.87
2023-04-01T04:44:29.536Z,5.57
2023-04-01T04:48:01.510Z,6.32
2023-04-01T04:51:37.025Z,5.68
2023-04-01T04:55:09.041Z,5.77
2023-04-01T04:58:41.296Z,6.10
2023-04-01T05:02:13.181Z,6.03
2023-04-01T05:05:53.810Z,4.90
2023-04-01T05:09:25.791Z,5.57
2023-04-01T05:12:58.520Z,5.55
2023-04-01T05:16:32.405Z,4.67
2023-04-01T05:20:06.062Z,5.05
2023-04-01T05:23:38.709Z,4.22
2023-04-01T05:27:10.889Z,5.13
2023-04-01T05:30:44.469Z,5.33
2023-04-01T05:34:16.995Z,5.97
2023-04-01T05:37:48.748Z,5.05
2023-04-01T05:41:22.906Z,4.20
2023-04-01T05:44:56.595Z,4.13
2023-04-01T05:48:28.659Z,3.88
2023-04-01T05:52:00.551Z,5.00
2023-04-01T05:55:33.172Z,4.10
2023-04-01T05:59:05.223Z,4.70
2023-04-01T06:02:38.873Z,4.68
2023-04-01T06:06:37.458Z,4.40
2023-04-01T06:10:20.761Z,4.63
2023-04-01T06:14:20.283Z,4.85
2023-04-01T06:18:15.324Z,5.03
2023-04-01T06:21:56.662Z,4.25
2023-04-01T06:25:28.559Z,5.75
2023-04-01T06:29:21.015Z,5.60
2023-04-01T06:32:56.043Z,5.90
2023-04-01T06:36:47.712Z,6.80
2023-04-01T06:40:51.392Z,6.28
2023-04-01T06:45:07.387Z,7.93
2023-04-01T06:49:27.193Z,7.47
2023-04-01T06:53:24.886Z,6.40
2023-04-01T06:57:06.785Z,5.90
2023-04-01T07:00:46.802Z,4.95
2023-04-01T07:04:24.119Z,4.47
2023-04-01T07:08:01.023Z,3.30
2023-04-01T07:11:36.017Z,3.67
2023-04-01T07:15:26.171Z,3.88
2023-04-01T07:19:09.730Z,4.50
2023-04-01T07:22:46.413Z,4.70
2023-04-01T07:26:22.146Z,5.45
2023-04-01T07:29:57.969Z,6.70
2023-04-01T07:34:08.604Z,5.90
2023-04-01T07:38:06.632Z,7.10
2023-04-01T07:42:05.353Z,8.82
2023-04-01T07:46:14.610Z,6.53
2023-04-01T07:50:10.126Z,5.80
2023-04-01T07:54:14.454Z,6.13
2023-04-01T07:58:01.431Z,5.00
2023-04-01T08:01:37.360Z,3.72
2023-04-01T08:05:31.788Z,4.60
2023-04-01T08:09:25.532Z,4.45
2023-04-01T08:13:43.234Z,5.78
2023-04-01T08:17:45.818Z,5.55
2023-04-01T08:21:26.154Z,4.63
2023-04-01T08:25:03.729Z,5.50
2023-04-01T08:28:35.596Z,5.40
2023-04-01T08:32:17.032Z,4.53
2023-04-01T08:35:57.447Z,4.32
2023-04-01T08:39:35.300Z,4.82
2023-04-01T08:43:37.087Z,5.03
2023-04-01T08:47:31.472Z,4.40
2023-04-01T08:51:23.190Z,5.80
2023-04-01T08:55:05.703Z,5.35
2023-04-01T08:59:19.614Z,5.70
2023-04-01T09:03:15.198Z,4.90
2023-04-01T09:07:22.474Z,5.97
2023-04-01T09:11:12.559Z,5.65
2023-04-01T09:14:48.580Z,6.00
2023-04-01T09:18:45.159Z,5.93
2023-04-01T09:22:41.603Z,5.78
2023-04-01T09:26:39.585Z,6.60
2023-04-01T09:30:43.373Z,5.87
2023-04-01T09:34:34.537Z,5.68
2023-04-01T09:38:20.803Z,5.85
2023-04-01T09:42:02.086Z,5.20
2023-04-01T09:45:36.721Z,5.60
2023-04-01T09:49:46.175Z,7.13
2023-04-01T09:53:33.834Z,5.93
2023-04-01T09:57:37.612Z,6.40
2023-04-01T10:02:04.635Z,6.23
2023-04-01T10:06:14.260Z,6.63
2023-04-01T10:10:20.265Z,6.70
2023-04-01T10:13:58.244Z,9.47
2023-04-01T10:17:42.273Z,8.40
2023-04-01T10:21:36.460Z,7.50
2023-04-01T10:25:46.408Z,7.20
2023-04-01T10:29:27.463Z,7.33
2023-04-01T10:33:46.856Z,7.95
2023-04-01T10:37:38.623Z,9.05
2023-04-01T10:41:55.781Z,7.90
2023-04-01T10:45:40.124Z,7.60
2023-04-01T10:49:30.873Z,8.18
2023-04-01T10:53:33.703Z,6.70
2023-04-01T10:57:30.248Z,6.83
2023-04-01T11:01:47.911Z,7.90
2023-04-01T11:05:56.105Z,7.90
2023-04-01T11:09:37.441Z,7.30
2023-04-01T11:13:37.693Z,8.00
2023-04-01T11:17:09.752Z,8.30
2023-04-01T11:21:07.263Z,7.85
2023-04-01T11:25:00.957Z,7.20
2023-04-01T11:28:56.325Z,9.02
2023-04-01T11:32:47.924Z,8.02
2023-04-01T11:36:40.929Z,7.40
2023-04-01T11:40:32.669Z,7.50
2023-04-01T11:44:25.627Z,7.47
2023-04-01T11:48:19.473Z,9.05
2023-04-01T11:52:21.708Z,8.73
2023-04-01T11:56:15.846Z,7.10
2023-04-01T12:00:35.192Z,5.72
2023-04-01T12:04:23.167Z,5.20
2023-04-01T12:08:13.455Z,6.32
2023-04-01T12:11:53.560Z,6.38
2023-04-01T12:15:55.856Z,6.00
2023-04-01T12:19:58.542Z,5.97
2023-04-01T12:23:52.003Z,4.35
2023-04-01T12:27:39.270Z,4.32
2023-04-01T12:31:24.930Z,6.07
2023-04-01T12:35:31.072Z,4.80
2023-04-01T12:39:41.979Z,5.35
2023-04-01T12:43:44.388Z,4.17
2023-04-01T12:47:31.627Z,5.28
2023-04-01T12:51:22.161Z,5.20
2023-04-01T12:55:23.413Z,4.80
2023-04-01T12:58:56.075Z,4.80
2023-04-01T13:02:53.442Z,4.88
2023-04-01T13:06:54.497Z,4.90
2023-04-01T13:10:54.969Z,5.90
2023-04-01T13:14:48.198Z,5.95
2023-04-01T13:18:33.094Z,5.90
2023-04-01T13:22:14.341Z,5.43
2023-04-01T13:26:13.632Z,4.80
2023-04-01T13:30:11.026Z,4.25
2023-04-01T13:33:57.314Z,3.78
2023-04-01T13:37:44.309Z,4.27
2023-04-01T13:41:22.122Z,3.97
2023-04-01T13:45:14.953Z,3.53
2023-04-01T13:48:50.550Z,3.42
2023-04-01T13:52:39.818Z,3.33
2023-04-01T13:56:17.876Z,3.47
2023-04-01T14:00:02.187Z,5.05
2023-04-01T14:03:38.287Z,3.55
2023-04-01T14:07:33.794Z,3.80
2023-04-01T14:11:08.479Z,3.90
2023-04-01T14:14:49.326Z,4.70
2023-04-01T14:18:52.491Z,6.43
2023-04-01T14:22:47.699Z,4.82
2023-04-01T14:26:41.365Z,4.60
2023-04-01T14:30:42.336Z,4.90
2023-04-01T14:34:47.463Z,4.00
2023-04-01T14:38:52.389Z,4.95
2023-04-01T14:42:30.575Z,4.68
2023-04-01T14:46:20.972Z,6.20
2023-04-01T14:50:15.183Z,4.82
2023-04-01T14:54:23.600Z,4.28
2023-04-01T14:58:08.202Z,3.53
2023-04-01T15:01:48.352Z,4.10
2023-04-01T15:05:50.027Z,4.35
2023-04-01T15:09:24.781Z,4.60
2023-04-01T15:13:16.838Z,4.70
2023-04-01T15:17:22.229Z,4.13
2023-04-01T15:21:13.418Z,4.70
2023-04-01T15:25:00.787Z,5.00
2023-04-01T15:28:35.874Z,3.73
2023-04-01T15:32:30.401Z,4.03
2023-04-01T15:36:41.677Z,4.47
2023-04-01T15:40:38.724Z,4.35
2023-04-01T15:44:41.595Z,3.27
2023-04-01T15:48:40.959Z,4.70
2023-04-01T15:52:23.908Z,3.92
2023-04-01T15:56:13.781Z,5.13
2023-04-01T16:00:01.576Z,4.93
2023-04-01T16:03:55.716Z,5.95
2023-04-01T16:07:53.170Z,5.67
2023-04-01T16:12:05.733Z,5.50
2023-04-01T16:16:00.700Z,5.03
2023-04-01T16:19:48.168Z,4.65
2023-04-01T16:23:38.980Z,4.47
2023-04-01T16:27:23.365Z,4.50
2023-04-01T16:31:10.552Z,4.43
2023-04-01T16:34:55.525Z,4.67
2023-04-01T16:38:30.674Z,5.68
2023-04-01T16:42:20.665Z,6.15
2023-04-01T16:46:22.314Z,6.65
2023-04-01T16:50:21.453Z,6.40
2023-04-01T16:54:14.408Z,7.57
2023-04-01T16:58:19.183Z,5.93
2023-04-01T17:02:06.608Z,6.77
2023-04-01T17:05:45.244Z,6.13
2023-04-01T17:09:29.706Z,7.18
2023-04-01T17:13:26.621Z,5.20
2023-04-01T17:17:32.653Z,5.38
2023-04-01T17:21:27.584Z,4.55
2023-04-01T17:25:40.056Z,4.55
2023-04-01T17:29:39.661Z,4.80
2023-04-01T17:33:33.032Z,6.15
2023-04-01T17:37:42.634Z,5.57
2023-04-01T17:41:34.079Z,5.13
2023-04-01T17:45:19.386Z,5.00
2023-04-01T17:48:51.666Z,4.20
2023-04-01T17:52:26.193Z,4.83
2023-04-01T17:56:26.603Z,4.07
2023-04-01T18:00:04.897Z,3.10
2023-04-01T18:03:55.149Z,3.65
2023-04-01T18:07:46.866Z,3.50
2023-04-01T18:11:40.206Z,3.92
2023-04-01T18:15:24.587Z,4.38
2023-04-01T18:19:07.721Z,2.73
2023-04-01T18:22:55.048Z,2.88
2023-04-01T18:26:33.173Z,2.30
2023-04-01T18:30:17.244Z,3.30
2023-04-01T18:34:43.105Z,3.63
2023-04-01T18:38:48.550Z,3.85
2023-04-01T18:42:54.089Z,4.18
2023-04-01T18:46:58.955Z,3.60
2023-04-01T18:50:48.372Z,3.60
2023-04-01T18:55:04.034Z,3.75
2023-04-01T18:58:56.525Z,3.63
2023-04-01T19:02:44.369Z,4.72
2023-04-01T19:06:31.184Z,3.85
2023-04-01T19:10:18.086Z,4.87
2023-04-01T19:14:05.399Z,2.95
2023-04-01T19:17:55.772Z,4.07
2023-04-01T19:22:12.965Z,3.22
2023-04-01T19:25:55.207Z,4.37
2023-04-01T19:29:53.291Z,3.80
2023-04-01T19:34:12.669Z,2.70
2023-04-01T19:38:26.698Z,3.20
2023-04-01T19:47:03.617Z,3.63
2023-04-01T19:50:50.950Z,3.17
2023-04-01T19:55:13.227Z,3.10
2023-04-01T19:59:16.195Z,3.42
2023-04-01T20:02:58.124Z,4.07
2023-04-01T20:06:53.594Z,2.63
2023-04-01T20:10:46.016Z,3.38
2023-04-01T20:14:47.044Z,2.60
2023-04-01T20:19:08.569Z,3.13
2023-04-01T20:22:51.709Z,2.47
2023-04-01T20:26:37.289Z,2.47
2023-04-01T20:30:43.033Z,2.93
2023-04-01T20:34:43.557Z,2.60
2023-04-01T20:38:56.143Z,2.80
2023-04-01T20:42:51.790Z,3.33
2023-04-01T20:46:43.059Z,2.80
2023-04-01T20:50:49.678Z,3.38
2023-04-01T20:54:42.487Z,2.90
2023-04-01T20:58:30.267Z,3.53
2023-04-01T21:02:17.112Z,4.10
2023-04-01T21:06:16.718Z,4.70
2023-04-01T21:10:26.335Z,3.97
2023-04-01T21:14:33.293Z,4.32
2023-04-01T21:18:20.780Z,3.83
2023-04-01T21:22:17.811Z,4.50
2023-04-01T21:26:05.464Z,4.80
2023-04-01T21:30:04.772Z,3.90
2023-04-01T21:34:12.335Z,4.47
2023-04-01T21:37:59.747Z,3.73
2023-04-01T21:41:46.777Z,4.35
2023-04-01T21:45:34.240Z,3.70
2023-04-01T21:49:26.214Z,4.30
2023-04-01T21:53:41.300Z,4.15
2023-04-01T21:57:36.735Z,4.32
2023-04-01T22:01:15.004Z,4.18
2023-04-01T22:05:13.492Z,4.47
2023-04-01T22:09:11.572Z,4.45
2023-04-01T22:12:46.789Z,4.28
2023-04-01T22:16:37.583Z,4.87
2023-04-01T22:20:25.000Z,3.72
2023-04-01T22:24:07.958Z,2.75
2023-04-01T22:27:51.311Z,3.53
2023-04-01T22:31:34.128Z,3.00
2023-04-01T22:35:16.439Z,2.83
2023-04-01T22:39:01.899Z,3.92
2023-04-01T22:42:47.601Z,3.17
2023-04-01T22:46:34.223Z,3.10
2023-04-01T22:50:09.810Z,3.15
2023-04-01T22:54:06.471Z,3.30
2023-04-01T22:57:54.862Z,2.47
2023-04-01T23:01:31.883Z,3.08
2023-04-01T23:05:07.341Z,2.33
2023-04-01T23:09:20.959Z,2.60
2023-04-01T23:13:03.457Z,2.40
2023-04-01T23:17:07.908Z,2.60
2023-04-01T23:20:55.250Z,2.67
2023-04-01T23:24:36.952Z,2.72
2023-04-01T23:28:41.928Z,2.70
2023-04-01T23:32:34.159Z,2.33
2023-04-01T23:36:14.983Z,1.80
2023-04-01T23:39:49.556Z,2.17
2023-04-01T23:43:28.582Z,2.03
2023-04-01T23:47:03.205Z,1.88
2023-04-01T23:50:35.685Z,2.05
2023-04-01T23:54:40.860Z,2.80
2023-04-01T23:58:38.782Z,2.30
